createdAt,value
2023-03-01T00:01:45.367Z,19.46
2023-03-01T00:05:45.423Z,19.45
2023-03-01T00:09:45.384Z,19.44
2023-03-01T00:13:45.339Z,19.44
2023-03-01T00:17:45.350Z,19.43
2023-03-01T00:21:45.336Z,19.42
2023-03-01T00:25:45.345Z,19.40
2023-03-01T00:29:45.310Z,19.40
2023-03-01T00:33:45.311Z,19.40
2023-03-01T00:37:45.295Z,19.39
2023-03-01T00:41:45.308Z,19.39
2023-03-01T00:45:45.314Z,19.38
2023-03-01T00:49:45.262Z,19.37
2023-03-01T00:53:45.245Z,19.36
2023-03-01T00:57:45.233Z,19.35
2023-03-01T01:01:45.263Z,19.34
2023-03-01T01:05:45.210Z,19.34
2023-03-01T01:09:45.184Z,19.33
2023-03-01T01:13:45.161Z,19.32
2023-03-01T01:17:45.174Z,19.32
2023-03-01T01:21:45.140Z,19.31
2023-03-01T01:25:45.143Z,19.31
2023-03-01T01:29:45.138Z,19.30
2023-03-01T01:33:45.158Z,19.30
2023-03-01T01:37:45.221Z,19.29
2023-03-01T01:41:45.111Z,19.28
2023-03-01T01:45:45.100Z,19.28
2023-03-01T01:49:45.097Z,19.28
2023-03-01T01:53:45.059Z,19.27
2023-03-01T01:57:45.085Z,19.26
2023-03-01T02:01:45.112Z,19.25
2023-03-01T02:05:45.368Z,19.25
2023-03-01T02:09:45.153Z,19.24
2023-03-01T02:13:45.193Z,19.25
2023-03-01T02:17:45.188Z,19.23
2023-03-01T02:21:45.211Z,19.23
2023-03-01T02:25:45.237Z,19.22
2023-03-01T02:29:45.277Z,19.23
2023-03-01T02:33:45.294Z,19.22
2023-03-01T02:37:45.275Z,19.21
2023-03-01T02:41:45.291Z,19.20
2023-03-01T02:45:45.308Z,19.20
2023-03-01T02:49:45.359Z,19.20
2023-03-01T02:53:45.401Z,19.19
2023-03-01T02:57:45.407Z,19.19
2023-03-01T03:01:47.120Z,19.18
2023-03-01T03:05:45.403Z,19.17
2023-03-01T03:09:45.483Z,19.17
2023-03-01T03:13:45.502Z,19.17
2023-03-01T03:17:46.497Z,19.16
2023-03-01T03:21:45.583Z,19.16
2023-03-01T03:25:45.635Z,19.16
2023-03-01T03:29:45.685Z,19.15
2023-03-01T03:33:45.742Z,19.14
2023-03-01T03:37:45.784Z,19.14
2023-03-01T03:41:45.785Z,19.14
2023-03-01T03:45:45.971Z,19.12
2023-03-01T03:49:46.867Z,19.13
2023-03-01T03:53:45.990Z,19.12
2023-03-01T03:57:45.989Z,19.12
2023-03-01T04:01:46.094Z,19.12
2023-03-01T04:05:46.108Z,19.11
2023-03-01T04:09:46.149Z,19.10
2023-03-01T04:13:46.216Z,19.10
2023-03-01T04:17:46.244Z,19.10
2023-03-01T04:21:46.264Z,19.09
2023-03-01T04:25:46.323Z,19.10
2023-03-01T04:29:46.356Z,19.09
2023-03-01T04:33:46.382Z,19.08
2023-03-01T04:37:46.414Z,19.08
2023-03-01T04:41:46.435Z,19.08
2023-03-01T04:45:46.524Z,19.07
2023-03-01T04:49:46.549Z,19.07
2023-03-01T04:53:46.562Z,19.07
2023-03-01T04:57:46.580Z,19.06
2023-03-01T05:01:46.635Z,19.05
2023-03-01T05:05:46.703Z,19.05
2023-03-01T05:09:46.722Z,19.05
2023-03-01T05:13:46.741Z,19.04
2023-03-01T05:17:46.786Z,19.03
2023-03-01T05:21:46.823Z,19.04
2023-03-01T05:25:46.874Z,19.04
2023-03-01T05:29:46.892Z,19.03
2023-03-01T05:33:46.944Z,19.03
2023-03-01T05:37:46.976Z,19.03
2023-03-01T05:41:47.036Z,19.03
2023-03-01T05:45:47.078Z,19.01
2023-03-01T05:49:47.115Z,19.02
2023-03-01T05:53:47.126Z,19.00
2023-03-01T05:57:47.184Z,19.00
2023-03-01T06:01:47.238Z,19.01
2023-03-01T06:05:47.390Z,19.01
2023-03-01T06:09:47.302Z,19.03
2023-03-01T06:13:47.357Z,19.05
2023-03-01T06:17:47.393Z,19.05
2023-03-01T06:21:47.430Z,19.06
2023-03-01T06:25:47.469Z,19.07
2023-03-01T06:29:47.532Z,19.08
2023-03-01T06:33:47.576Z,19.10
2023-03-01T06:37:47.642Z,19.12
2023-03-01T06:41:47.916Z,19.12
2023-03-01T06:45:47.678Z,19.10
2023-03-01T06:49:47.919Z,19.04
2023-03-01T06:53:47.903Z,19.07
2023-03-01T06:57:47.926Z,19.11
2023-03-01T07:01:48.055Z,19.29
2023-03-01T07:05:47.889Z,19.46
2023-03-01T07:09:47.862Z,19.61
2023-03-01T07:13:47.924Z,19.73
2023-03-01T07:17:47.757Z,19.81
2023-03-01T07:21:47.724Z,19.91
2023-03-01T07:25:47.692Z,19.98
2023-03-01T07:29:47.661Z,20.02
2023-03-01T07:33:47.638Z,20.13
2023-03-01T07:37:47.603Z,20.20
2023-03-01T07:41:47.568Z,20.24
2023-03-01T07:45:47.971Z,20.28
2023-03-01T07:49:47.918Z,20.26
2023-03-01T07:53:47.925Z,20.28
2023-03-01T07:57:47.392Z,20.33
2023-03-01T08:01:47.421Z,20.39
2023-03-01T08:05:47.459Z,20.40
2023-03-01T08:09:47.462Z,20.42
2023-03-01T08:13:47.253Z,20.48
2023-03-01T08:17:47.221Z,20.54
2023-03-01T08:21:47.154Z,20.53
2023-03-01T08:25:47.160Z,20.57
2023-03-01T08:29:47.434Z,20.59
2023-03-01T08:33:47.055Z,20.63
2023-03-01T08:37:47.453Z,20.68
2023-03-01T08:41:48.263Z,20.70
2023-03-01T08:45:47.983Z,20.75
2023-03-01T08:49:47.557Z,20.75
2023-03-01T08:53:47.928Z,20.72
2023-03-01T08:57:47.580Z,20.63
2023-03-01T09:01:48.617Z,20.58
2023-03-01T09:05:47.608Z,20.55
2023-03-01T09:09:47.598Z,20.56
2023-03-01T09:13:48.038Z,20.57
2023-03-01T09:17:47.716Z,20.53
2023-03-01T09:21:47.760Z,20.54
2023-03-01T09:25:47.823Z,20.55
2023-03-01T09:29:47.957Z,20.58
2023-03-01T09:33:47.903Z,20.55
2023-03-01T09:37:48.481Z,20.54
2023-03-01T09:41:48.455Z,20.54
2023-03-01T09:45:48.106Z,20.55
2023-03-01T09:49:48.483Z,20.56
2023-03-01T09:53:48.484Z,20.54
2023-03-01T09:57:48.458Z,20.55
2023-03-01T10:01:48.244Z,20.55
2023-03-01T10:05:48.307Z,20.55
2023-03-01T10:09:48.367Z,20.55
2023-03-01T10:13:48.468Z,20.54
2023-03-01T10:17:48.435Z,20.55
2023-03-01T10:21:48.471Z,20.56
2023-03-01T10:25:49.072Z,20.57
2023-03-01T10:29:48.534Z,20.57
2023-03-01T10:33:48.548Z,20.56
2023-03-01T10:37:48.553Z,20.60
2023-03-01T10:41:49.023Z,20.68
2023-03-01T10:45:48.998Z,20.72
2023-03-01T10:49:48.518Z,20.80
2023-03-01T10:53:48.524Z,20.83
2023-03-01T10:57:49.065Z,20.84
2023-03-01T11:01:48.565Z,20.81
2023-03-01T11:05:48.515Z,20.77
2023-03-01T11:09:48.503Z,20.75
2023-03-01T11:13:48.542Z,20.74
2023-03-01T11:17:57.011Z,20.74
2023-03-01T11:21:49.435Z,20.74
2023-03-01T11:25:48.418Z,20.74
2023-03-01T11:29:49.432Z,20.74
2023-03-01T11:33:48.340Z,20.75
2023-03-01T11:37:48.502Z,20.74
2023-03-01T11:41:48.280Z,20.78
2023-03-01T11:45:48.577Z,20.81
2023-03-01T11:49:48.194Z,20.78
2023-03-01T11:53:48.515Z,20.75
2023-03-01T11:57:48.107Z,20.73
2023-03-01T12:01:48.139Z,20.71
2023-03-01T12:05:48.522Z,20.70
2023-03-01T12:09:48.023Z,20.68
2023-03-01T12:13:48.033Z,20.67
2023-03-01T12:17:47.938Z,20.67
2023-03-01T12:21:47.922Z,20.66
2023-03-01T12:25:47.936Z,20.66
2023-03-01T12:29:48.029Z,20.66
2023-03-01T12:33:48.022Z,20.63
2023-03-01T12:37:47.930Z,20.65
2023-03-01T12:41:47.908Z,20.69
2023-03-01T12:45:47.950Z,20.72
2023-03-01T12:49:47.895Z,20.74
2023-03-01T12:53:47.904Z,20.77
2023-03-01T12:57:47.894Z,20.80
2023-03-01T13:01:48.042Z,20.82
2023-03-01T13:05:51.036Z,20.83
2023-03-01T13:09:47.837Z,20.85
2023-03-01T13:13:47.796Z,20.84
2023-03-01T13:17:47.781Z,20.84
2023-03-01T13:21:47.800Z,20.84
2023-03-01T13:25:47.655Z,20.84
2023-03-01T13:29:47.634Z,20.82
2023-03-01T13:33:48.216Z,20.78
2023-03-01T13:37:47.608Z,20.75
2023-03-01T13:41:47.575Z,20.74
2023-03-01T13:45:47.510Z,20.75
2023-03-01T13:49:47.479Z,20.74
2023-03-01T13:53:47.430Z,20.74
2023-03-01T13:57:47.386Z,20.74
2023-03-01T14:01:47.381Z,20.73
2023-03-01T14:05:47.297Z,20.74
2023-03-01T14:09:47.273Z,20.70
2023-03-01T14:13:47.221Z,20.72
2023-03-01T14:17:47.216Z,20.70
2023-03-01T14:21:47.160Z,20.70
2023-03-01T14:25:47.145Z,20.70
2023-03-01T14:29:47.064Z,20.69
2023-03-01T14:33:47.058Z,20.69
2023-03-01T14:37:46.997Z,20.69
2023-03-01T14:41:47.019Z,20.68
2023-03-01T14:45:47.050Z,20.67
2023-03-01T14:49:46.924Z,20.67
2023-03-01T14:53:51.232Z,20.68
2023-03-01T14:57:46.945Z,20.66
2023-03-01T15:01:46.863Z,20.67
2023-03-01T15:05:46.762Z,20.65
2023-03-01T15:09:46.742Z,20.62
2023-03-01T15:13:46.702Z,20.58
2023-03-01T15:17:46.685Z,20.57
2023-03-01T15:21:46.635Z,20.57
2023-03-01T15:25:46.558Z,20.57
2023-03-01T15:29:46.580Z,20.58
2023-03-01T15:33:46.503Z,20.58
2023-03-01T15:37:46.469Z,20.57
2023-03-01T15:41:46.426Z,20.59
2023-03-01T15:45:46.378Z,20.61
2023-03-01T15:49:54.959Z,20.61
2023-03-01T15:53:54.324Z,20.61
2023-03-01T15:57:47.389Z,20.62
2023-03-01T16:01:46.300Z,20.57
2023-03-01T16:05:46.271Z,20.54
2023-03-01T16:09:46.195Z,20.51
2023-03-01T16:13:46.238Z,20.52
2023-03-01T16:17:46.232Z,20.54
2023-03-01T16:21:46.092Z,20.55
2023-03-01T16:25:46.085Z,20.52
2023-03-01T16:29:46.040Z,20.53
2023-03-01T16:33:46.009Z,20.52
2023-03-01T16:37:45.958Z,20.51
2023-03-01T16:41:45.900Z,20.49
2023-03-01T16:45:46.024Z,20.45
2023-03-01T16:49:45.872Z,20.45
2023-03-01T16:53:47.525Z,20.47
2023-03-01T16:57:45.826Z,20.48
2023-03-01T17:01:45.749Z,20.48
2023-03-01T17:05:45.817Z,20.47
2023-03-01T17:09:45.843Z,20.44
2023-03-01T17:13:45.898Z,20.45
2023-03-01T17:17:45.978Z,20.44
2023-03-01T17:21:46.028Z,20.45
2023-03-01T17:25:46.114Z,20.42
2023-03-01T17:29:46.128Z,20.41
2023-03-01T17:33:46.181Z,20.43
2023-03-01T17:37:46.332Z,20.44
2023-03-01T17:41:46.348Z,20.44
2023-03-01T17:45:46.429Z,20.46
2023-03-01T17:49:46.430Z,20.45
2023-03-01T17:53:46.543Z,20.41
2023-03-01T17:57:46.620Z,20.39
2023-03-01T18:01:46.798Z,20.37
2023-03-01T18:05:46.790Z,20.37
2023-03-01T18:09:46.965Z,20.38
2023-03-01T18:13:46.955Z,20.37
2023-03-01T18:17:47.837Z,20.36
2023-03-01T18:21:47.176Z,20.35
2023-03-01T18:25:47.285Z,20.34
2023-03-01T18:29:47.413Z,20.32
2023-03-01T18:33:47.543Z,20.32
2023-03-01T18:37:47.641Z,20.31
2023-03-01T18:41:47.873Z,20.30
2023-03-01T18:45:47.890Z,20.29
2023-03-01T18:49:48.029Z,20.28
2023-03-01T18:53:48.144Z,20.27
2023-03-01T18:57:48.301Z,20.27
2023-03-01T19:01:48.452Z,20.26
2023-03-01T19:05:48.540Z,20.25
2023-03-01T19:09:48.688Z,20.24
2023-03-01T19:13:48.802Z,20.23
2023-03-01T19:17:48.963Z,20.22
2023-03-01T19:21:59.444Z,20.21
2023-03-01T19:25:50.084Z,20.20
2023-03-01T19:29:49.053Z,20.19
2023-03-01T19:33:50.078Z,20.20
2023-03-01T19:37:49.132Z,20.19
2023-03-01T19:41:50.179Z,20.17
2023-03-01T19:45:49.465Z,20.17
2023-03-01T19:49:49.643Z,20.16
2023-03-01T19:53:49.776Z,20.15
2023-03-01T19:57:49.940Z,20.12
2023-03-01T20:01:50.190Z,20.12
2023-03-01T20:05:50.301Z,20.11
2023-03-01T20:09:50.526Z,20.10
2023-03-01T20:13:50.719Z,20.09
2023-03-01T20:17:50.977Z,20.08
2023-03-01T20:21:51.095Z,20.08
2023-03-01T20:25:51.249Z,20.07
2023-03-01T20:29:51.429Z,20.06
2023-03-01T20:33:51.731Z,20.06
2023-03-01T20:37:51.832Z,20.05
2023-03-01T20:41:52.017Z,20.04
2023-03-01T20:45:52.212Z,20.03
2023-03-01T20:49:52.466Z,20.02
2023-03-01T20:53:52.639Z,20.02
2023-03-01T20:57:52.843Z,20.01
2023-03-01T21:01:53.039Z,20.01
2023-03-01T21:05:53.211Z,20.00
2023-03-01T21:09:53.498Z,19.98
2023-03-01T21:13:53.624Z,19.97
2023-03-01T21:17:53.618Z,19.97
2023-03-01T21:21:53.570Z,19.98
2023-03-01T21:25:53.508Z,19.97
2023-03-01T21:29:53.457Z,19.95
2023-03-01T21:33:53.447Z,19.95
2023-03-01T21:37:53.407Z,19.94
2023-03-01T21:41:53.360Z,19.93
2023-03-01T21:45:53.351Z,19.93
2023-03-01T21:49:53.300Z,19.92
2023-03-01T21:53:53.249Z,19.92
2023-03-01T21:57:53.219Z,19.91
2023-03-01T22:01:53.152Z,19.90
2023-03-01T22:05:53.118Z,19.90
2023-03-01T22:09:53.088Z,19.89
2023-03-01T22:13:53.080Z,19.88
2023-03-01T22:17:53.031Z,19.87
2023-03-01T22:21:53.020Z,19.86
2023-03-01T22:25:52.968Z,19.85
2023-03-01T22:29:52.906Z,19.84
2023-03-01T22:33:52.958Z,19.84
2023-03-01T22:37:52.871Z,19.83
2023-03-01T22:41:52.835Z,19.82
2023-03-01T22:45:52.847Z,19.81
2023-03-01T22:49:52.761Z,19.80
2023-03-01T22:53:52.744Z,19.80
2023-03-01T22:57:52.705Z,19.79
2023-03-01T23:01:52.724Z,19.78
2023-03-01T23:05:52.646Z,19.78
2023-03-01T23:09:52.569Z,19.76
2023-03-01T23:13:52.698Z,19.76
2023-03-01T23:17:52.640Z,19.75
2023-03-01T23:21:52.622Z,19.74
2023-03-01T23:25:52.614Z,19.74
2023-03-01T23:29:52.516Z,19.75
2023-03-01T23:33:52.530Z,19.72
2023-03-01T23:37:52.477Z,19.73
2023-03-01T23:41:52.771Z,19.71
2023-03-01T23:45:52.416Z,19.71
2023-03-01T23:49:52.328Z,19.70
2023-03-01T23:53:52.379Z,19.70
2023-03-01T23:57:52.525Z,19.68
